Time;durP1;ratioP1;P1;durP2;ratioP2;P2;SDS_P1;SDS_P2;PMS_P1;PMS_P2;Temp;Humidity;BMP_temperature;BMP_pressure;BME280_temperature;BME280_humidity;BME280_pressure;Samples;Min_cycle;Max_cycle;Signal;HPM_P1;HPM_P2
2022/11/20 00:00:24;;;;;;;36.30;23.95;;;0.50;99.90;;;;;;5113184;28;20031;-74
2022/11/20 00:02:50;;;;;;;34.20;22.35;;;0.60;99.90;;;;;;5111730;28;20049;-74
2022/11/20 00:05:16;;;;;;;37.53;25.00;;;0.60;99.90;;;;;;5113228;28;20038;-74
2022/11/20 00:07:42;;;;;;;31.55;20.20;;;0.60;99.90;;;;;;5095543;28;20118;-74
2022/11/20 00:10:08;;;;;;;32.30;22.00;;;0.60;99.90;;;;;;5111114;28;20170;-74
2022/11/20 00:12:34;;;;;;;30.42;18.75;;;0.60;99.90;;;;;;5112502;28;20084;-74
2022/11/20 00:14:59;;;;;;;20.10;12.90;;;0.60;99.90;;;;;;5112191;28;20128;-73
2022/11/20 00:17:25;;;;;;;21.27;13.60;;;0.60;99.90;;;;;;5093972;28;20039;-73
2022/11/20 00:19:51;;;;;;;20.77;12.82;;;0.60;99.90;;;;;;5112241;28;20118;-73
2022/11/20 00:22:16;;;;;;;17.98;11.98;;;0.60;99.90;;;;;;5111727;28;20115;-74
2022/11/20 00:24:42;;;;;;;25.42;15.00;;;0.60;99.90;;;;;;5111551;28;20036;-73
2022/11/20 00:27:07;;;;;;;22.92;13.43;;;0.60;99.90;;;;;;5111732;28;20039;-74
2022/11/20 00:29:33;;;;;;;22.23;13.32;;;0.60;99.90;;;;;;5095109;28;20085;-74
2022/11/20 00:31:59;;;;;;;22.13;13.95;;;0.60;99.90;;;;;;5111345;28;20043;-74
2022/11/20 00:34:24;;;;;;;26.65;13.50;;;0.60;99.90;;;;;;5111236;28;20500;-74
2022/11/20 00:36:50;;;;;;;22.63;12.35;;;0.70;99.90;;;;;;5111821;28;20052;-74
2022/11/20 00:39:16;;;;;;;20.27;12.13;;;0.70;99.90;;;;;;5111989;28;20032;-74
2022/11/20 00:41:41;;;;;;;19.92;11.95;;;0.70;99.90;;;;;;5113229;28;20114;-73
2022/11/20 00:44:07;;;;;;;20.33;12.93;;;0.70;99.90;;;;;;5112445;28;20084;-73
2022/11/20 00:46:32;;;;;;;20.88;12.02;;;0.70;99.90;;;;;;5111035;28;20123;-74
2022/11/20 00:48:58;;;;;;;19.88;12.48;;;0.70;99.90;;;;;;5094841;28;20123;-74
2022/11/20 00:51:26;;;;;;;29.33;17.77;;;0.70;99.90;;;;;;5111159;28;20047;-74
2022/11/20 00:53:54;;;;;;;32.08;17.60;;;0.80;99.90;;;;;;5112232;28;20089;-74
2022/11/20 00:56:20;;;;;;;30.17;15.93;;;0.70;99.90;;;;;;5094074;28;20126;-74
2022/11/20 00:58:47;;;;;;;27.88;14.75;;;0.80;99.90;;;;;;5111094;28;20114;-74
2022/11/20 01:01:16;;;;;;;23.05;12.68;;;0.70;99.90;;;;;;5110992;28;20043;-74
2022/11/20 01:03:45;;;;;;;19.75;11.00;;;0.80;99.90;;;;;;5112879;28;20537;-74
2022/11/20 01:06:15;;;;;;;18.92;11.38;;;0.80;99.90;;;;;;5110425;28;20065;-74
2022/11/20 01:08:41;;;;;;;22.83;13.98;;;0.70;99.90;;;;;;5094675;28;20064;-74
2022/11/20 01:11:11;;;;;;;24.33;12.85;;;0.70;99.90;;;;;;5112296;28;20088;-74
2022/11/20 01:13:37;;;;;;;17.23;10.77;;;0.70;99.90;;;;;;5110952;28;20416;-74
2022/11/20 01:16:22;;;;;;;19.30;11.25;;;0.70;99.90;;;;;;5113012;28;20621;-74
2022/11/20 01:18:50;;;;;;;15.90;10.30;;;0.70;99.90;;;;;;5117152;28;20036;-74
2022/11/20 01:21:22;;;;;;;14.05;9.48;;;0.70;99.90;;;;;;5114783;28;20145;-73
2022/11/20 01:23:49;;;;;;;15.80;10.65;;;0.70;99.90;;;;;;5115686;28;20047;-74
2022/11/20 01:26:27;;;;;;;16.77;10.57;;;0.60;99.90;;;;;;5114884;28;20048;-74
2022/11/20 01:28:53;;;;;;;17.02;10.30;;;0.60;99.90;;;;;;5115148;28;20422;-74
2022/11/20 01:31:22;;;;;;;16.60;10.32;;;0.60;99.90;;;;;;5116148;28;20051;-75
2022/11/20 01:33:53;;;;;;;15.30;9.95;;;0.70;99.90;;;;;;5115274;28;20124;-74
2022/11/20 01:36:21;;;;;;;16.95;10.70;;;0.60;99.90;;;;;;5116145;28;20043;-73
2022/11/20 01:38:50;;;;;;;19.15;12.38;;;0.60;99.90;;;;;;5116638;28;20510;-73
2022/11/20 01:44:00;;;;;;;14.93;9.95;;;0.70;99.90;;;;;;5115255;28;20039;-73
2022/11/20 01:46:26;;;;;;;20.65;11.40;;;0.70;99.90;;;;;;5114592;28;20049;-74
2022/11/20 01:49:03;;;;;;;16.83;9.82;;;0.70;99.90;;;;;;5115725;28;20140;-74
2022/11/20 01:51:43;;;;;;;16.52;9.70;;;0.70;99.90;;;;;;5115194;28;20480;-74
2022/11/20 01:54:22;;;;;;;16.38;10.23;;;0.70;99.90;;;;;;5114463;28;20042;-74
2022/11/20 01:56:50;;;;;;;14.02;9.05;;;0.80;99.90;;;;;;5114267;28;20050;-74
2022/11/20 01:59:19;;;;;;;14.40;8.52;;;0.80;99.90;;;;;;5115755;28;20035;-74
2022/11/20 02:01:44;;;;;;;14.38;9.07;;;0.80;99.90;;;;;;5097984;28;20035;-74
2022/11/20 02:04:11;;;;;;;15.27;9.32;;;0.80;99.90;;;;;;5113622;28;20077;-74
2022/11/20 02:06:45;;;;;;;16.38;9.15;;;0.80;99.90;;;;;;5114904;28;20079;-74
2022/11/20 02:09:14;;;;;;;14.30;8.73;;;0.80;99.90;;;;;;5114741;28;20113;-73
2022/11/20 02:11:40;;;;;;;14.57;8.73;;;0.80;99.90;;;;;;5116023;28;20040;-73
2022/11/20 02:14:07;;;;;;;15.88;9.32;;;0.80;99.90;;;;;;5097041;28;20050;-74
2022/11/20 02:16:40;;;;;;;15.93;8.68;;;0.80;99.90;;;;;;5113904;28;20043;-74
2022/11/20 02:19:12;;;;;;;16.70;9.05;;;0.80;99.90;;;;;;5097006;28;20046;-74
2022/11/20 02:22:08;;;;;;;15.05;8.68;;;0.80;99.90;;;;;;5114772;28;20043;-74
2022/11/20 02:24:34;;;;;;;16.63;9.45;;;0.90;99.90;;;;;;5114950;28;20035;-74
2022/11/20 02:27:04;;;;;;;15.95;9.40;;;0.80;99.90;;;;;;5114394;28;20067;-73
2022/11/20 02:29:51;;;;;;;14.75;8.80;;;0.90;99.90;;;;;;5097982;28;20419;-73
2022/11/20 02:32:18;;;;;;;15.10;8.55;;;0.90;99.90;;;;;;5114384;28;20043;-74
2022/11/20 02:34:44;;;;;;;16.83;8.27;;;0.90;99.90;;;;;;5115251;28;20064;-74
2022/11/20 02:37:10;;;;;;;17.63;10.20;;;0.90;99.90;;;;;;5114459;28;20134;-74
2022/11/20 02:39:35;;;;;;;14.60;8.95;;;0.90;99.90;;;;;;5113903;28;20101;-74
2022/11/20 02:42:02;;;;;;;15.10;8.95;;;0.90;99.90;;;;;;5115636;28;20118;-73
2022/11/20 02:44:27;;;;;;;15.02;8.70;;;0.90;99.90;;;;;;5112713;28;20086;-73
2022/11/20 02:46:56;;;;;;;14.32;9.05;;;0.90;99.90;;;;;;5114071;28;20071;-74
2022/11/20 02:49:21;;;;;;;14.35;8.77;;;0.90;99.90;;;;;;5113390;28;20119;-74
2022/11/20 02:51:47;;;;;;;14.68;9.10;;;0.90;99.90;;;;;;5113572;28;20138;-73
2022/11/20 02:54:13;;;;;;;14.48;9.18;;;0.90;99.90;;;;;;5114676;28;20472;-74
2022/11/20 02:56:39;;;;;;;13.98;8.90;;;0.90;99.90;;;;;;5113801;28;20053;-74
2022/11/20 02:59:05;;;;;;;13.88;8.30;;;1.00;99.90;;;;;;5113916;28;20035;-74
2022/11/20 03:01:30;;;;;;;16.52;9.00;;;1.00;99.90;;;;;;5113789;28;20373;-73
2022/11/20 03:03:56;;;;;;;14.85;9.27;;;1.00;99.90;;;;;;5114871;28;20484;-73
2022/11/20 03:06:22;;;;;;;14.23;8.32;;;1.00;99.90;;;;;;5112538;28;20068;-73
2022/11/20 03:08:48;;;;;;;13.50;8.45;;;1.00;99.90;;;;;;5096534;28;20044;-73
2022/11/20 03:11:13;;;;;;;14.27;8.50;;;1.10;99.90;;;;;;5113267;28;20442;-74
2022/11/20 03:13:39;;;;;;;15.60;9.10;;;1.10;99.90;;;;;;5112722;28;20552;-74
2022/11/20 03:16:17;;;;;;;16.77;10.35;;;1.10;99.90;;;;;;5112832;28;20051;-74
2022/11/20 03:18:43;;;;;;;13.25;8.40;;;1.10;99.90;;;;;;5113753;28;20043;-73
2022/11/20 03:21:10;;;;;;;14.07;8.18;;;1.10;99.90;;;;;;5113512;28;20040;-73
2022/11/20 03:23:36;;;;;;;14.07;8.40;;;1.10;99.90;;;;;;5113231;28;20455;-73
2022/11/20 03:26:29;;;;;;;14.70;8.93;;;1.10;99.90;;;;;;5114576;28;20054;-74
2022/11/20 03:29:00;;;;;;;17.75;8.90;;;1.10;99.90;;;;;;5113081;28;20133;-74
2022/11/20 03:31:40;;;;;;;14.63;8.88;;;1.10;99.90;;;;;;5112929;28;20434;-73
2022/11/20 03:34:06;;;;;;;17.45;9.73;;;1.20;99.90;;;;;;5094613;28;20545;-74
2022/11/20 03:36:32;;;;;;;14.43;8.52;;;1.20;99.90;;;;;;5114205;28;20450;-74
2022/11/20 03:38:58;;;;;;;14.95;9.15;;;1.20;99.90;;;;;;5113681;28;20050;-73
2022/11/20 03:41:29;;;;;;;13.23;8.27;;;1.20;99.90;;;;;;5112688;28;20035;-74
2022/11/20 03:43:57;;;;;;;14.27;8.45;;;1.20;99.90;;;;;;5114403;28;20036;-74
2022/11/20 03:46:23;;;;;;;13.70;7.97;;;1.20;99.90;;;;;;5112454;28;20044;-74
2022/11/20 03:48:49;;;;;;;15.13;9.10;;;1.20;99.90;;;;;;5113339;28;20028;-73
2022/11/20 03:51:21;;;;;;;14.73;8.13;;;1.20;99.90;;;;;;5113383;28;20369;-73
2022/11/20 03:53:48;;;;;;;15.57;8.18;;;1.10;99.90;;;;;;5113991;27;20036;-74
2022/11/20 03:56:16;;;;;;;14.45;8.15;;;1.10;99.90;;;;;;5111433;28;20055;-74
2022/11/20 03:58:42;;;;;;;14.27;8.25;;;1.10;99.90;;;;;;5114177;28;20035;-74
2022/11/20 04:01:12;;;;;;;16.45;9.07;;;1.00;99.90;;;;;;5113389;28;20043;-74
2022/11/20 04:03:39;;;;;;;14.52;9.80;;;1.00;99.90;;;;;;5111716;28;20162;-74
2022/11/20 04:06:08;;;;;;;15.88;9.20;;;1.00;99.90;;;;;;5113069;28;20079;-74
2022/11/20 04:08:34;;;;;;;16.55;8.80;;;1.00;99.90;;;;;;5113029;28;20048;-73
2022/11/20 04:11:13;;;;;;;14.30;8.90;;;1.00;99.90;;;;;;5113922;28;20043;-73
2022/11/20 04:13:40;;;;;;;14.40;7.95;;;1.00;99.90;;;;;;5113751;27;20085;-74
2022/11/20 04:16:07;;;;;;;12.32;7.30;;;1.00;99.90;;;;;;5111245;28;20046;-74
2022/11/20 04:18:33;;;;;;;13.70;7.50;;;0.90;99.90;;;;;;5113530;28;20097;-74
2022/11/20 04:20:59;;;;;;;13.80;8.25;;;0.90;99.90;;;;;;5112075;28;20051;-74
2022/11/20 04:23:25;;;;;;;34.47;20.25;;;0.80;99.90;;;;;;5112159;28;20070;-73
2022/11/20 04:25:51;;;;;;;21.67;11.95;;;0.80;99.90;;;;;;5112272;28;20064;-74
2022/11/20 04:28:17;;;;;;;15.68;8.77;;;0.80;99.90;;;;;;5111646;28;20437;-74
2022/11/20 04:30:43;;;;;;;12.23;7.32;;;0.80;99.90;;;;;;5111466;28;20038;-73
2022/11/20 04:33:09;;;;;;;14.25;8.60;;;0.80;99.90;;;;;;5111476;28;20047;-73
2022/11/20 04:35:35;;;;;;;12.07;7.28;;;0.80;99.90;;;;;;5111815;28;20161;-74
2022/11/20 04:38:01;;;;;;;11.65;7.38;;;0.70;99.90;;;;;;5111128;28;20044;-74
2022/11/20 04:40:28;;;;;;;12.75;7.68;;;0.70;99.90;;;;;;5112747;28;20040;-73
2022/11/20 04:42:54;;;;;;;12.77;7.05;;;0.70;99.90;;;;;;5113325;28;20035;-73
2022/11/20 04:45:20;;;;;;;12.75;7.35;;;0.70;99.90;;;;;;5110417;28;20058;-74
2022/11/20 04:47:46;;;;;;;13.05;7.05;;;0.70;99.90;;;;;;5113023;28;20496;-74
2022/11/20 04:50:12;;;;;;;13.90;7.78;;;0.70;99.90;;;;;;5110260;28;20079;-74
2022/11/20 04:52:37;;;;;;;12.20;7.88;;;0.70;99.90;;;;;;5111335;28;20101;-73
2022/11/20 04:55:03;;;;;;;13.52;8.23;;;0.70;99.90;;;;;;5111659;28;20506;-74
2022/11/20 04:57:29;;;;;;;10.82;6.88;;;0.60;99.90;;;;;;5111853;28;20049;-73
2022/11/20 04:59:55;;;;;;;11.60;6.93;;;0.60;99.90;;;;;;5110950;28;20039;-73
2022/11/20 05:02:21;;;;;;;12.20;7.78;;;0.60;99.90;;;;;;5111380;28;20166;-74
2022/11/20 05:04:46;;;;;;;12.27;7.35;;;0.60;99.90;;;;;;5112730;28;20031;-74
2022/11/20 05:07:12;;;;;;;12.00;7.05;;;0.60;99.90;;;;;;5110847;28;20046;-73
2022/11/20 05:09:38;;;;;;;11.88;7.22;;;0.60;99.90;;;;;;5111891;28;20043;-74
2022/11/20 05:12:04;;;;;;;11.93;7.65;;;0.60;99.90;;;;;;5110346;28;20480;-74
2022/11/20 05:14:30;;;;;;;12.93;8.38;;;0.60;99.90;;;;;;5112944;28;20050;-74
2022/11/20 05:16:55;;;;;;;15.80;8.52;;;0.60;99.90;;;;;;5112777;28;20066;-74
2022/11/20 05:19:21;;;;;;;13.48;7.65;;;0.70;99.90;;;;;;5111159;28;20031;-74
2022/11/20 05:21:47;;;;;;;12.82;8.20;;;0.70;99.90;;;;;;5111532;28;20086;-73
2022/11/20 05:24:13;;;;;;;11.80;6.65;;;0.70;99.90;;;;;;5111202;28;20468;-73
2022/11/20 05:26:38;;;;;;;11.95;6.53;;;0.70;99.90;;;;;;5093926;28;20472;-74
2022/11/20 05:29:04;;;;;;;13.45;7.55;;;0.70;99.90;;;;;;5112158;28;20480;-73
2022/11/20 05:31:29;;;;;;;12.10;6.75;;;0.80;99.90;;;;;;5111386;28;20051;-73
2022/11/20 05:33:56;;;;;;;11.10;7.18;;;0.80;99.90;;;;;;5111359;28;20052;-73
2022/11/20 05:36:22;;;;;;;13.10;7.85;;;0.80;99.90;;;;;;5112131;28;20044;-73
2022/11/20 05:38:48;;;;;;;11.68;6.55;;;0.90;99.90;;;;;;5112702;28;20038;-73
2022/11/20 05:41:16;;;;;;;12.27;7.18;;;0.90;99.90;;;;;;5111131;28;20039;-74
2022/11/20 05:43:43;;;;;;;11.43;7.43;;;0.90;99.90;;;;;;5111297;28;20035;-73
2022/11/20 05:46:11;;;;;;;11.23;7.00;;;0.90;99.90;;;;;;5112134;28;20079;-73
2022/11/20 05:48:38;;;;;;;11.52;7.20;;;0.90;99.90;;;;;;5093002;28;20071;-73
2022/11/20 05:51:05;;;;;;;12.40;6.57;;;1.00;99.90;;;;;;5110647;28;20043;-74
2022/11/20 05:53:33;;;;;;;14.00;7.97;;;1.00;99.90;;;;;;5111223;28;20066;-74
2022/11/20 05:56:04;;;;;;;14.13;7.28;;;1.00;99.90;;;;;;5110189;28;20039;-73
2022/11/20 05:58:31;;;;;;;16.23;7.65;;;1.00;99.90;;;;;;5112341;28;20131;-73
2022/11/20 06:01:23;;;;;;;10.38;6.38;;;1.10;99.90;;;;;;5112273;28;20039;-74
2022/11/20 06:03:50;;;;;;;12.55;7.18;;;1.10;99.90;;;;;;5115548;28;20043;-73
2022/11/20 06:06:17;;;;;;;12.20;6.93;;;1.10;99.90;;;;;;5115826;28;20395;-74
2022/11/20 06:08:44;;;;;;;11.25;7.22;;;1.20;99.90;;;;;;5115347;28;20039;-73
2022/11/20 06:11:12;;;;;;;13.18;8.82;;;1.20;99.90;;;;;;5114201;28;20039;-73
2022/11/20 06:13:38;;;;;;;13.77;8.38;;;1.20;99.90;;;;;;5114707;28;20045;-73
2022/11/20 06:16:04;;;;;;;14.20;7.80;;;1.20;99.90;;;;;;5114640;28;20035;-74
2022/11/20 06:18:30;;;;;;;11.68;7.75;;;1.20;99.90;;;;;;5116136;27;20106;-73
2022/11/20 06:21:05;;;;;;;13.73;8.00;;;1.20;99.90;;;;;;5114879;28;20498;-73
2022/11/20 06:23:32;;;;;;;12.95;7.72;;;1.20;99.90;;;;;;5115004;28;20036;-74
2022/11/20 06:26:05;;;;;;;13.52;7.65;;;1.20;99.90;;;;;;5114588;28;20605;-73
2022/11/20 06:28:31;;;;;;;12.15;7.50;;;1.20;99.90;;;;;;5114509;28;20042;-73
2022/11/20 06:30:57;;;;;;;11.23;7.32;;;1.20;99.90;;;;;;5114729;28;20059;-73
2022/11/20 06:33:23;;;;;;;11.95;7.72;;;1.20;99.90;;;;;;5113691;28;20822;-73
2022/11/20 06:35:49;;;;;;;16.58;8.30;;;1.20;99.90;;;;;;5115732;28;20044;-74
2022/11/20 06:38:15;;;;;;;15.68;7.72;;;1.10;99.90;;;;;;5113198;28;20043;-73
2022/11/20 06:40:42;;;;;;;13.55;7.78;;;1.10;99.90;;;;;;5115365;27;20024;-74
2022/11/20 06:43:11;;;;;;;14.32;8.43;;;1.20;99.90;;;;;;5095428;28;20059;-73
2022/11/20 06:45:37;;;;;;;12.13;7.28;;;1.10;99.90;;;;;;5112991;28;20036;-73
2022/11/20 06:48:03;;;;;;;13.05;8.13;;;1.20;99.90;;;;;;5096919;28;20044;-73
2022/11/20 06:50:29;;;;;;;12.30;7.70;;;1.20;99.90;;;;;;5113151;28;20078;-73
2022/11/20 06:52:54;;;;;;;14.45;8.25;;;1.20;99.90;;;;;;5120693;27;20070;-74
2022/11/20 06:55:20;;;;;;;13.05;7.95;;;1.20;99.90;;;;;;5116110;27;20039;-74
2022/11/20 06:57:46;;;;;;;13.23;7.90;;;1.30;99.90;;;;;;5113816;28;20040;-73
2022/11/20 07:00:12;;;;;;;13.05;7.82;;;1.20;99.90;;;;;;5113332;28;20036;-74
2022/11/20 07:02:38;;;;;;;13.00;7.70;;;1.20;99.90;;;;;;5113757;28;20036;-73
2022/11/20 07:05:04;;;;;;;12.68;7.07;;;1.20;99.90;;;;;;5112450;28;20096;-74
2022/11/20 07:07:30;;;;;;;17.15;9.65;;;1.20;99.90;;;;;;5113651;28;20071;-73
2022/11/20 07:09:55;;;;;;;15.07;8.13;;;1.20;99.90;;;;;;5113585;28;20043;-74
2022/11/20 07:12:21;;;;;;;13.25;8.18;;;1.20;99.90;;;;;;5112354;28;20036;-74
2022/11/20 07:14:47;;;;;;;12.52;8.15;;;1.20;99.90;;;;;;5112386;28;20080;-73
2022/11/20 07:17:12;;;;;;;14.60;8.80;;;1.20;99.90;;;;;;5112915;28;20059;-73
2022/11/20 07:19:38;;;;;;;16.40;10.15;;;1.20;99.90;;;;;;5112693;28;20395;-73
2022/11/20 07:22:04;;;;;;;14.50;8.13;;;1.20;99.90;;;;;;5113245;28;20043;-74
2022/11/20 07:24:29;;;;;;;13.55;8.52;;;1.20;99.90;;;;;;5113423;28;20047;-73
2022/11/20 07:26:55;;;;;;;14.05;8.38;;;1.20;99.90;;;;;;5112280;28;20054;-73
2022/11/20 07:29:21;;;;;;;14.95;9.10;;;1.20;99.90;;;;;;5112512;28;20107;-73
2022/11/20 07:31:46;;;;;;;16.40;9.13;;;1.20;99.90;;;;;;5114623;28;20047;-73
2022/11/20 07:34:12;;;;;;;18.85;11.00;;;1.20;99.90;;;;;;5111644;28;20059;-73
2022/11/20 07:36:38;;;;;;;16.33;10.55;;;1.20;99.90;;;;;;5112922;28;20104;-73
2022/11/20 07:39:04;;;;;;;16.83;9.45;;;1.20;99.90;;;;;;5113665;28;20034;-74
2022/11/20 07:41:29;;;;;;;12.57;8.15;;;1.20;99.90;;;;;;5113636;28;20043;-73
2022/11/20 07:43:55;;;;;;;14.38;8.32;;;1.20;99.90;;;;;;5113790;28;20067;-73
2022/11/20 07:46:21;;;;;;;13.02;9.30;;;1.20;99.90;;;;;;5113519;28;20416;-73
2022/11/20 07:48:46;;;;;;;14.13;8.30;;;1.20;99.90;;;;;;5112427;28;20052;-73
2022/11/20 07:51:13;;;;;;;13.43;9.07;;;1.20;99.90;;;;;;5113493;28;20035;-74
2022/11/20 07:53:39;;;;;;;15.13;8.98;;;1.20;99.90;;;;;;5111987;28;20046;-73
2022/11/20 07:56:04;;;;;;;14.90;9.45;;;1.20;99.90;;;;;;5112165;28;20400;-73
2022/11/20 07:58:32;;;;;;;15.32;9.40;;;1.20;99.90;;;;;;5112337;28;20055;-73
2022/11/20 08:01:02;;;;;;;15.25;9.68;;;1.10;99.90;;;;;;5112987;28;20046;-73
2022/11/20 08:03:27;;;;;;;15.93;8.32;;;1.10;99.90;;;;;;5112448;28;20083;-73
2022/11/20 08:05:53;;;;;;;18.80;9.30;;;1.10;99.90;;;;;;5095580;28;20455;-73
2022/11/20 08:08:19;;;;;;;16.13;10.00;;;1.20;99.90;;;;;;5112241;28;20396;-73
2022/11/20 08:10:45;;;;;;;17.00;9.95;;;1.20;99.90;;;;;;5112851;28;20474;-73
2022/11/20 08:15:55;;;;;;;15.48;8.73;;;1.20;99.90;;;;;;5112779;28;20431;-73
2022/11/20 08:18:20;;;;;;;16.27;10.85;;;1.20;99.90;;;;;;5111724;28;20036;-73
2022/11/20 08:20:46;;;;;;;17.15;10.90;;;1.20;99.90;;;;;;5113396;28;20034;-73
2022/11/20 08:23:11;;;;;;;16.48;10.68;;;1.20;99.90;;;;;;5111020;28;20036;-74
2022/11/20 08:25:38;;;;;;;14.70;9.45;;;1.30;99.90;;;;;;5112281;28;20449;-73
2022/11/20 08:28:06;;;;;;;13.88;8.77;;;1.30;99.90;;;;;;5112184;28;20126;-73
2022/11/20 08:30:32;;;;;;;15.88;8.80;;;1.30;99.90;;;;;;5112467;28;20499;-73
2022/11/20 08:33:03;;;;;;;21.55;11.25;;;1.40;99.90;;;;;;5095348;28;20065;-73
2022/11/20 08:35:32;;;;;;;16.05;9.48;;;1.40;99.90;;;;;;5111891;28;20101;-73
2022/11/20 08:37:58;;;;;;;13.50;9.32;;;1.40;99.90;;;;;;5111095;28;20039;-73
2022/11/20 08:40:24;;;;;;;15.18;9.15;;;1.40;99.90;;;;;;5112691;28;20034;-73
2022/11/20 08:42:50;;;;;;;15.23;10.02;;;1.50;99.90;;;;;;5111270;28;20460;-73
2022/11/20 08:45:17;;;;;;;16.48;9.32;;;1.50;99.90;;;;;;5093600;28;20043;-73
2022/11/20 08:47:43;;;;;;;15.95;10.57;;;1.60;99.90;;;;;;5111783;28;20115;-72
2022/11/20 08:50:10;;;;;;;15.23;9.93;;;1.60;99.90;;;;;;5093422;28;20047;-73
2022/11/20 08:52:36;;;;;;;20.80;12.18;;;1.60;99.90;;;;;;5094881;28;20052;-73
2022/11/20 08:55:02;;;;;;;18.33;11.40;;;1.60;99.90;;;;;;5113056;28;20377;-73
2022/11/20 08:57:28;;;;;;;17.20;10.85;;;1.60;99.90;;;;;;5109629;28;20040;-73
2022/11/20 08:59:53;;;;;;;17.85;10.80;;;1.60;99.90;;;;;;5112514;28;20027;-73
2022/11/20 09:02:19;;;;;;;15.10;9.43;;;1.70;99.90;;;;;;5093624;28;20487;-73
2022/11/20 09:04:44;;;;;;;17.23;9.77;;;1.70;99.90;;;;;;5111780;28;20043;-72
2022/11/20 09:07:10;;;;;;;17.63;10.52;;;1.80;99.90;;;;;;5111716;28;20110;-73
2022/11/20 09:09:36;;;;;;;15.90;10.13;;;1.80;99.90;;;;;;5112756;28;20032;-73
2022/11/20 09:12:01;;;;;;;14.40;10.02;;;1.80;99.90;;;;;;5093862;28;20046;-73
2022/11/20 09:14:29;;;;;;;12.80;8.10;;;1.90;99.90;;;;;;5110754;28;20545;-72
2022/11/20 09:16:57;;;;;;;15.82;10.02;;;1.90;99.90;;;;;;5111556;28;20069;-72
2022/11/20 09:19:26;;;;;;;15.18;10.00;;;1.90;99.90;;;;;;5110099;28;20044;-72
2022/11/20 09:21:52;;;;;;;16.63;10.27;;;1.90;99.90;;;;;;5111552;28;20085;-72
2022/11/20 09:24:18;;;;;;;14.70;10.25;;;2.00;99.90;;;;;;5109906;28;20043;-73
2022/11/20 09:26:44;;;;;;;14.20;9.65;;;2.00;99.90;;;;;;5107218;28;20036;-72
2022/11/20 09:29:10;;;;;;;17.48;9.88;;;2.10;99.90;;;;;;5107492;28;20549;-73
2022/11/20 09:31:36;;;;;;;15.43;9.45;;;2.10;99.90;;;;;;5106231;28;20043;-72
2022/11/20 09:34:01;;;;;;;15.00;9.80;;;2.20;99.90;;;;;;5107835;28;20104;-72
2022/11/20 09:36:27;;;;;;;13.07;8.35;;;2.20;99.90;;;;;;5108601;28;20056;-73
2022/11/20 09:38:53;;;;;;;15.27;9.02;;;2.30;99.90;;;;;;5095030;28;20047;-72
2022/11/20 09:41:28;;;;;;;13.30;7.68;;;2.30;99.90;;;;;;5112096;28;20065;-72
2022/11/20 09:44:02;;;;;;;16.75;10.07;;;2.30;99.90;;;;;;5113144;28;20042;-72
2022/11/20 09:46:49;;;;;;;15.00;9.30;;;2.40;99.90;;;;;;5111623;28;20047;-72
2022/11/20 09:49:53;;;;;;;15.13;9.05;;;2.40;99.90;;;;;;5110337;28;20035;-72
2022/11/20 09:52:37;;;;;;;14.27;9.32;;;2.50;99.90;;;;;;5091909;28;20530;-73
2022/11/20 09:55:06;;;;;;;14.57;8.48;;;2.50;99.90;;;;;;5108956;28;20051;-73
2022/11/20 09:57:37;;;;;;;11.00;6.93;;;2.60;99.90;;;;;;5113021;28;20047;-72
2022/11/20 10:00:05;;;;;;;12.98;8.43;;;2.60;99.90;;;;;;5113177;28;20062;-73
2022/11/20 10:02:42;;;;;;;14.85;8.93;;;2.60;99.90;;;;;;5111918;28;20047;-72
2022/11/20 10:05:30;;;;;;;15.75;8.85;;;2.60;99.90;;;;;;5113786;28;20087;-73
2022/11/20 10:08:20;;;;;;;14.52;8.48;;;2.60;99.90;;;;;;5113683;28;20047;-73
2022/11/20 10:10:56;;;;;;;14.13;8.18;;;2.70;99.90;;;;;;5110578;28;20040;-73
2022/11/20 10:13:44;;;;;;;13.45;7.40;;;2.70;99.90;;;;;;5097565;28;20050;-73
2022/11/20 10:16:46;;;;;;;15.02;8.85;;;2.70;99.90;;;;;;5095705;28;20101;-73
2022/11/20 10:19:20;;;;;;;12.07;7.53;;;2.70;99.90;;;;;;5105426;28;20055;-74
2022/11/20 10:21:49;;;;;;;12.27;7.80;;;2.80;99.90;;;;;;5113188;28;20511;-72
2022/11/20 10:24:39;;;;;;;12.68;8.25;;;2.80;99.90;;;;;;5114930;28;20388;-69
2022/11/20 10:27:31;;;;;;;17.63;9.00;;;2.90;99.90;;;;;;5096839;28;20040;-74
2022/11/20 10:30:11;;;;;;;12.32;7.60;;;2.90;99.90;;;;;;5112528;28;20534;-71
2022/11/20 10:32:39;;;;;;;15.68;9.60;;;2.90;99.90;;;;;;5115538;28;20500;-72
2022/11/20 10:35:25;;;;;;;16.08;10.32;;;2.90;99.90;;;;;;5113695;28;20063;-71
2022/11/20 10:37:59;;;;;;;14.23;8.63;;;2.90;99.90;;;;;;5097088;28;20404;-68
2022/11/20 10:40:49;;;;;;;12.80;8.05;;;3.00;99.90;;;;;;5113826;28;20039;-72
2022/11/20 10:43:32;;;;;;;12.60;7.82;;;3.00;99.90;;;;;;5114387;27;20031;-72
2022/11/20 10:46:08;;;;;;;15.85;7.88;;;2.90;99.90;;;;;;5113996;28;20036;-71
2022/11/20 10:48:33;;;;;;;12.70;7.75;;;3.00;99.90;;;;;;5113751;28;20097;-71
2022/11/20 10:51:24;;;;;;;11.70;7.68;;;2.90;99.90;;;;;;5112820;28;20035;-71
2022/11/20 10:54:06;;;;;;;15.15;8.13;;;2.90;99.90;;;;;;5113923;28;20039;-72
2022/11/20 10:56:39;;;;;;;12.30;7.63;;;2.80;99.90;;;;;;5096072;28;20044;-72
2022/11/20 10:59:35;;;;;;;11.00;7.15;;;2.80;99.90;;;;;;5113288;28;20077;-72
2022/11/20 11:02:01;;;;;;;10.65;6.50;;;2.80;99.90;;;;;;5120512;27;20034;-72
2022/11/20 11:04:37;;;;;;;11.93;7.10;;;2.80;99.90;;;;;;5133280;27;20047;-71
2022/11/20 11:07:19;;;;;;;11.88;7.43;;;2.80;99.90;;;;;;5134364;27;20043;-72
2022/11/20 11:09:49;;;;;;;11.10;6.65;;;2.90;99.90;;;;;;5080669;28;20360;-72
2022/11/20 11:12:16;;;;;;;11.65;6.47;;;2.90;99.90;;;;;;5095520;28;20392;-71
2022/11/20 11:14:52;;;;;;;9.90;5.30;;;2.90;99.90;;;;;;5113830;28;20119;-71
2022/11/20 11:17:30;;;;;;;10.13;5.72;;;3.00;99.90;;;;;;5090216;28;20050;-71
2022/11/20 11:20:15;;;;;;;9.05;5.47;;;3.00;99.90;;;;;;5114387;27;20419;-71
2022/11/20 11:22:51;;;;;;;9.88;6.07;;;3.00;99.90;;;;;;5134191;27;20042;-71
2022/11/20 11:25:30;;;;;;;11.60;5.50;;;3.00;99.90;;;;;;5127072;27;20040;-72
2022/11/20 11:27:58;;;;;;;8.25;4.95;;;3.00;99.90;;;;;;5114415;28;20032;-72
2022/11/20 11:30:26;;;;;;;7.88;5.15;;;3.00;99.90;;;;;;5112418;28;20400;-71
2022/11/20 11:33:06;;;;;;;9.18;5.25;;;3.10;99.90;;;;;;5112541;28;20371;-71
2022/11/20 11:35:33;;;;;;;9.20;5.75;;;3.10;99.90;;;;;;5113745;28;20136;-71
2022/11/20 11:38:14;;;;;;;11.25;5.88;;;3.10;99.90;;;;;;5112625;28;20048;-70
2022/11/20 11:40:41;;;;;;;7.88;4.40;;;3.20;99.90;;;;;;5112397;28;20036;-71
2022/11/20 11:46:19;;;;;;;9.18;5.53;;;3.30;99.90;;;;;;5112092;28;20147;-71
2022/11/20 11:48:56;;;;;;;10.57;6.03;;;3.30;99.90;;;;;;5112483;28;20084;-71
2022/11/20 11:51:22;;;;;;;8.63;4.90;;;3.40;99.90;;;;;;5111333;28;20469;-72
2022/11/20 11:53:47;;;;;;;10.73;6.05;;;3.40;99.90;;;;;;5112982;28;20114;-72
2022/11/20 11:56:14;;;;;;;8.52;4.90;;;3.40;99.90;;;;;;5112310;28;20042;-71
2022/11/20 11:58:49;;;;;;;9.00;4.97;;;3.50;99.90;;;;;;5110712;28;20046;-69
2022/11/20 12:01:44;;;;;;;8.63;5.40;;;3.40;99.90;;;;;;5112083;28;20046;-71
2022/11/20 12:04:28;;;;;;;10.30;5.75;;;3.50;99.90;;;;;;5105384;28;20483;-71
2022/11/20 12:07:34;;;;;;;10.27;5.57;;;3.50;99.90;;;;;;5108596;28;20082;-71
2022/11/20 12:10:03;;;;;;;10.02;5.90;;;3.50;99.90;;;;;;5100650;27;20051;-70
2022/11/20 12:12:36;;;;;;;10.48;5.32;;;3.50;99.90;;;;;;5091630;28;20040;-71
2022/11/20 12:15:04;;;;;;;9.52;5.85;;;3.50;99.90;;;;;;5108164;28;20403;-71
2022/11/20 12:17:29;;;;;;;9.27;5.70;;;3.50;99.90;;;;;;5091537;28;20519;-71
2022/11/20 12:19:56;;;;;;;9.15;5.22;;;3.50;99.90;;;;;;5108750;28;20458;-72
2022/11/20 12:22:45;;;;;;;7.50;4.43;;;3.50;99.90;;;;;;5109462;28;20104;-71
2022/11/20 12:25:18;;;;;;;8.98;4.80;;;3.50;99.90;;;;;;5109097;28;20034;-71
2022/11/20 12:27:56;;;;;;;7.30;4.65;;;3.40;99.90;;;;;;5108795;28;20044;-71
2022/11/20 12:30:22;;;;;;;10.05;5.10;;;3.40;99.90;;;;;;5107427;28;20506;-71
2022/11/20 12:33:01;;;;;;;8.98;5.05;;;3.40;99.90;;;;;;5108839;28;20169;-71
2022/11/20 12:35:57;;;;;;;7.88;4.65;;;3.40;99.90;;;;;;5107743;28;20544;-71
2022/11/20 12:38:35;;;;;;;7.47;4.68;;;3.40;99.90;;;;;;5108167;28;20401;-71
2022/11/20 12:45:10;;;;;;;7.72;4.10;;;3.40;99.90;;;;;;5093021;28;20370;-71
2022/11/20 12:48:07;;;;;;;10.10;4.82;;;3.40;99.90;;;;;;5087984;28;20052;-71
2022/11/20 12:50:44;;;;;;;8.02;4.63;;;3.50;99.90;;;;;;5099432;28;20044;-71
2022/11/20 12:53:54;;;;;;;7.85;4.28;;;3.50;99.90;;;;;;5093059;28;20043;-71
2022/11/20 12:56:33;;;;;;;8.50;4.05;;;3.50;99.90;;;;;;5054545;28;20052;-71
2022/11/20 12:59:23;;;;;;;8.18;4.50;;;3.50;99.90;;;;;;5104256;28;20040;-70
2022/11/20 13:02:34;;;;;;;7.38;4.07;;;3.50;99.90;;;;;;5092220;28;20130;-71
2022/11/20 13:05:41;;;;;;;9.45;4.47;;;3.50;99.90;;;;;;5054551;28;20071;-71
2022/11/20 13:08:25;;;;;;;8.32;4.25;;;3.50;99.90;;;;;;5087708;28;20075;-71
2022/11/20 13:11:03;;;;;;;9.07;5.18;;;3.50;99.90;;;;;;5070546;28;20130;-71
2022/11/20 13:13:42;;;;;;;8.73;4.90;;;3.50;99.90;;;;;;5103001;28;20093;-71